Time;durP1;ratioP1;P1;durP2;ratioP2;P2;SDS_P1;SDS_P2;PMS_P1;PMS_P2;Temp;Humidity;BMP_temperature;BMP_pressure;BME280_temperature;BME280_humidity;BME280_pressure;Samples;Min_cycle;Max_cycle;Signal;HPM_P1;HPM_P2
2022/06/22 00:02:20;;;;;;;10.60;4.80;;;;;;;14.20;54.09;98453.15;105886;1278;97954;-68
2022/06/22 00:05:02;;;;;;;11.90;4.50;;;;;;;14.15;54.22;98450.92;106018;1277;112508;-67
2022/06/22 00:07:43;;;;;;;9.00;4.60;;;;;;;14.16;54.21;98453.22;105980;1277;95275;-69
2022/06/22 00:10:21;;;;;;;11.00;4.40;;;;;;;14.13;54.27;98446.97;106666;1276;107830;-67
2022/06/22 00:12:53;;;;;;;15.70;4.80;;;;;;;14.10;54.31;98444.29;105919;1276;97726;-68
2022/06/22 00:15:47;;;;;;;10.60;4.30;;;;;;;14.03;54.35;98455.79;105939;1277;97180;-69
2022/06/22 00:18:19;;;;;;;15.20;5.10;;;;;;;13.93;54.29;98456.05;105929;1277;112020;-65
2022/06/22 00:20:53;;;;;;;10.40;4.40;;;;;;;13.88;54.38;98448.52;105931;1276;97917;-66
2022/06/22 00:23:30;;;;;;;11.10;4.90;;;;;;;13.82;54.46;98451.91;105936;1277;107730;-68
2022/06/22 00:26:22;;;;;;;11.20;4.40;;;;;;;13.76;54.44;98454.33;105901;1276;97961;-68
2022/06/22 00:29:02;;;;;;;12.90;4.70;;;;;;;13.71;54.51;98455.50;105931;1276;97954;-67
2022/06/22 00:31:44;;;;;;;8.20;3.80;;;;;;;13.66;54.74;98458.25;105940;1277;112112;-68
2022/06/22 00:34:26;;;;;;;10.70;4.80;;;;;;;13.61;54.87;98463.23;105998;1277;95282;-66
2022/06/22 00:37:06;;;;;;;11.80;4.50;;;;;;;13.55;54.79;98459.27;105910;1276;107635;-66
2022/06/22 00:39:41;;;;;;;11.20;4.60;;;;;;;13.53;54.81;98460.21;105903;1276;97947;-69
2022/06/22 00:42:15;;;;;;;9.60;4.40;;;;;;;13.50;54.85;98463.50;105973;1276;97881;-68
2022/06/22 00:45:11;;;;;;;10.70;4.20;;;;;;;13.48;54.94;98463.38;105947;1276;112059;-67
2022/06/22 00:47:59;;;;;;;13.30;4.80;;;;;;;13.43;55.04;98455.69;105963;1276;97924;-68
2022/06/22 00:50:42;;;;;;;10.50;4.20;;;;;;;13.38;55.08;98446.48;105780;1277;108391;-69
2022/06/22 00:53:23;;;;;;;9.00;4.10;;;;;;;13.34;55.19;98442.73;105912;1276;97976;-66
2022/06/22 00:56:09;;;;;;;8.80;4.30;;;;;;;13.30;55.30;98445.73;105892;1277;98451;-65
2022/06/22 00:58:54;;;;;;;8.30;4.10;;;;;;;13.28;55.46;98454.31;105832;1278;112013;-67
2022/06/22 01:01:53;;;;;;;7.40;4.00;;;;;;;13.24;55.44;98459.83;105887;1277;98018;-67
2022/06/22 01:04:40;;;;;;;9.30;4.40;;;;;;;13.20;55.55;98460.18;105873;1277;108426;-68
2022/06/22 01:07:32;;;;;;;9.60;4.30;;;;;;;13.18;55.64;98453.66;105893;1277;95306;-67
2022/06/22 01:10:13;;;;;;;10.20;4.30;;;;;;;13.15;55.69;98450.02;105936;1277;98596;-65
2022/06/22 01:12:54;;;;;;;8.70;4.00;;;;;;;13.13;55.61;98444.53;105880;1277;112007;-65
2022/06/22 01:15:46;;;;;;;9.90;4.00;;;;;;;13.11;55.77;98444.73;105868;1278;96456;-66
2022/06/22 01:18:32;;;;;;;8.80;4.20;;;;;;;13.08;55.84;98441.19;105918;1277;108845;-67
2022/06/22 01:21:23;;;;;;;9.60;4.30;;;;;;;13.06;55.90;98438.16;106699;1277;97085;-66
2022/06/22 01:24:37;;;;;;;7.50;4.20;;;;;;;13.04;55.87;98445.45;105929;1277;97885;-67
2022/06/22 01:27:31;;;;;;;8.60;4.30;;;;;;;13.02;56.08;98445.02;106042;1276;111405;-68
2022/06/22 01:30:17;;;;;;;9.60;4.10;;;;;;;12.99;56.03;98445.23;105984;1276;95198;-66
2022/06/22 01:32:48;;;;;;;13.30;4.50;;;;;;;12.97;56.19;98450.38;105995;1277;107975;-69
2022/06/22 01:35:22;;;;;;;11.90;4.40;;;;;;;12.96;56.05;98451.42;105995;1276;97890;-66
2022/06/22 01:37:49;;;;;;;9.60;4.00;;;;;;;12.94;56.14;98454.95;105975;1277;97870;-67
2022/06/22 01:40:23;;;;;;;9.00;4.40;;;;;;;12.91;56.11;98457.91;105957;1278;110554;-67
2022/06/22 01:43:00;;;;;;;9.90;4.30;;;;;;;12.88;56.26;98464.55;105950;1277;97979;-68
2022/06/22 01:45:52;;;;;;;8.40;4.10;;;;;;;12.84;56.27;98468.37;105970;1277;108331;-69
2022/06/22 01:48:36;;;;;;;9.70;4.20;;;;;;;12.79;56.64;98466.27;106006;1277;97896;-67
2022/06/22 01:51:18;;;;;;;8.30;4.10;;;;;;;12.75;56.45;98468.45;105989;1276;97884;-69
2022/06/22 01:54:14;;;;;;;11.80;3.90;;;;;;;12.72;56.53;98475.45;105979;1276;114169;-67
2022/06/22 01:57:00;;;;;;;8.70;4.10;;;;;;;12.70;56.64;98479.94;105987;1277;98482;-68
2022/06/22 01:59:34;;;;;;;9.10;3.80;;;;;;;12.66;56.61;98480.45;105976;1277;107790;-69
2022/06/22 02:02:34;;;;;;;10.20;4.10;;;;;;;12.63;56.78;98475.56;106045;1276;97960;-68
2022/06/22 02:05:45;;;;;;;8.60;3.70;;;;;;;12.59;56.93;98471.85;106110;1276;97827;-67
2022/06/22 02:08:19;;;;;;;11.30;4.10;;;;;;;12.55;57.49;98470.08;106004;1277;111580;-68
2022/06/22 02:11:03;;;;;;;12.60;4.30;;;;;;;12.49;57.21;98466.16;106059;1276;96106;-67
2022/06/22 02:13:38;;;;;;;9.10;4.30;;;;;;;12.48;57.13;98465.52;106051;1275;107758;-67
2022/06/22 02:16:21;;;;;;;8.30;4.30;;;;;;;12.49;57.18;98466.32;105984;1276;95289;-69
2022/06/22 02:18:57;;;;;;;11.30;4.70;;;;;;;12.49;57.18;98464.56;106045;1276;98009;-68
2022/06/22 02:21:33;;;;;;;9.10;4.10;;;;;;;12.46;57.27;98466.35;105997;1276;112027;-68
2022/06/22 02:24:15;;;;;;;12.20;4.00;;;;;;;12.46;57.49;98466.04;105951;1276;98095;-67
2022/06/22 02:26:47;;;;;;;9.90;4.20;;;;;;;12.44;57.58;98467.14;106034;1276;108179;-68
2022/06/22 02:29:19;;;;;;;12.20;4.10;;;;;;;12.40;57.80;98467.30;105988;1276;97947;-68
2022/06/22 02:31:51;;;;;;;10.00;4.40;;;;;;;12.36;57.58;98465.17;106036;1276;97934;-67
2022/06/22 02:34:23;;;;;;;8.80;4.00;;;;;;;12.32;57.59;98463.45;106023;1276;111955;-67
2022/06/22 02:36:54;;;;;;;11.50;4.40;;;;;;;12.28;57.69;98467.87;106034;1276;97983;-67
2022/06/22 02:39:25;;;;;;;12.60;4.90;;;;;;;12.21;58.18;98470.80;106024;1275;108035;-68
2022/06/22 02:45:12;;;;;;;10.00;4.60;;;;;;;12.15;58.09;98472.92;105662;1282;98125;-68
2022/06/22 02:47:48;;;;;;;9.50;4.50;;;;;;;12.14;58.08;98469.08;105799;1281;111428;-69
2022/06/22 02:50:26;;;;;;;10.80;4.60;;;;;;;12.14;58.10;98472.11;105923;1277;96271;-68
2022/06/22 02:53:06;;;;;;;12.10;4.80;;;;;;;12.15;58.19;98479.16;105879;1277;107722;-69
2022/06/22 02:55:36;;;;;;;13.90;4.70;;;;;;;12.15;58.16;98486.60;105884;1277;95389;-68
2022/06/22 02:58:26;;;;;;;13.10;5.10;;;;;;;12.15;58.20;98497.02;105856;1277;97880;-68
2022/06/22 03:00:58;;;;;;;8.80;4.10;;;;;;;12.14;59.06;98494.70;105781;1277;112032;-69
2022/06/22 03:03:29;;;;;;;9.00;4.70;;;;;;;12.10;59.03;98493.59;105888;1276;97968;-66
2022/06/22 03:05:58;;;;;;;12.70;5.10;;;;;;;12.09;59.19;98488.03;105846;1276;106560;-69
2022/06/22 03:08:26;;;;;;;11.20;4.60;;;;;;;12.09;58.64;98485.49;105880;1276;97870;-69
2022/06/22 03:11:04;;;;;;;10.90;4.70;;;;;;;12.11;58.87;98489.44;105976;1276;97855;-71
2022/06/22 03:13:56;;;;;;;9.80;4.70;;;;;;;12.13;58.82;98493.17;105920;1276;111050;-68
2022/06/22 03:16:35;;;;;;;12.60;6.00;;;;;;;12.15;59.12;98493.70;105845;1277;97695;-69
2022/06/22 03:19:13;;;;;;;9.90;4.40;;;;;;;12.18;58.90;98492.00;105785;1277;107567;-67
2022/06/22 03:21:42;;;;;;;10.90;4.80;;;;;;;12.22;59.18;98486.52;107592;1276;95746;-69
2022/06/22 03:24:24;;;;;;;15.10;5.50;;;;;;;12.24;58.95;98489.50;106350;1276;97963;-69
2022/06/22 03:27:00;;;;;;;12.50;5.30;;;;;;;12.30;58.98;98493.09;105797;1276;112135;-67
2022/06/22 03:29:34;;;;;;;16.50;5.70;;;;;;;12.38;59.46;98493.23;105805;1276;97954;-68
2022/06/22 03:32:19;;;;;;;15.50;6.20;;;;;;;12.46;59.35;98495.76;106212;1276;108491;-66
2022/06/22 03:34:57;;;;;;;12.70;5.20;;;;;;;12.53;59.21;98500.30;105931;1276;97887;-66
2022/06/22 03:37:36;;;;;;;12.60;5.90;;;;;;;12.58;59.85;98501.41;105880;1276;97887;-68
2022/06/22 03:40:14;;;;;;;15.00;5.30;;;;;;;12.66;59.51;98508.16;105884;1276;111188;-68
2022/06/22 03:42:51;;;;;;;10.30;5.00;;;;;;;12.72;59.68;98513.31;105928;1276;97894;-70
2022/06/22 03:45:36;;;;;;;13.80;5.80;;;;;;;12.80;59.83;98514.91;104660;1276;1752334;-69
2022/06/22 03:48:17;;;;;;;11.00;5.80;;;;;;;12.91;59.82;98515.37;105973;1276;97990;-68
2022/06/22 03:51:19;;;;;;;12.60;5.30;;;;;;;12.95;59.99;98512.88;105951;1276;97948;-68
2022/06/22 03:54:10;;;;;;;12.90;5.40;;;;;;;12.91;59.63;98516.48;105898;1276;111005;-68
2022/06/22 03:56:49;;;;;;;12.10;5.40;;;;;;;12.87;59.62;98517.67;105951;1276;98033;-68
2022/06/22 03:59:18;;;;;;;15.10;5.10;;;;;;;12.86;59.74;98515.17;105973;1276;108352;-68
2022/06/22 04:01:46;;;;;;;13.20;5.30;;;;;;;12.84;59.93;98525.80;105920;1276;95835;-68
2022/06/22 04:04:16;;;;;;;11.20;5.40;;;;;;;12.80;60.19;98525.63;105968;1276;98030;-68
2022/06/22 04:06:49;;;;;;;15.50;5.60;;;;;;;12.77;59.88;98529.08;105948;1276;112006;-67
2022/06/22 04:09:24;;;;;;;11.80;5.20;;;;;;;12.76;60.15;98534.02;105994;1276;97939;-68
2022/06/22 04:12:11;;;;;;;12.10;5.10;;;;;;;12.76;60.20;98544.70;105966;1276;107682;-67
2022/06/22 04:14:49;;;;;;;13.10;5.70;;;;;;;12.76;60.46;98538.63;105979;1276;96985;-68
2022/06/22 04:17:37;;;;;;;14.90;5.40;;;;;;;12.76;60.85;98540.95;105954;1276;97989;-67
2022/06/22 04:20:24;;;;;;;10.10;5.40;;;;;;;12.76;60.75;98543.56;105936;1276;111430;-68
2022/06/22 04:22:56;;;;;;;10.00;4.80;;;;;;;12.78;60.53;98547.14;105938;1276;96337;-67
2022/06/22 04:25:26;;;;;;;10.70;4.90;;;;;;;12.80;60.05;98549.26;105914;1276;107505;-64
2022/06/22 04:27:58;;;;;;;16.40;5.20;;;;;;;12.84;60.43;98556.47;105917;1276;96579;-68
2022/06/22 04:30:39;;;;;;;12.80;5.50;;;;;;;12.83;60.09;98558.61;105972;1276;97886;-69
2022/06/22 04:33:18;;;;;;;10.20;4.80;;;;;;;12.84;60.80;98559.98;105956;1276;111374;-68
2022/06/22 04:36:06;;;;;;;10.40;4.90;;;;;;;12.85;60.96;98566.14;105907;1276;98017;-70
2022/06/22 04:39:03;;;;;;;15.10;5.70;;;;;;;12.84;60.80;98562.12;105805;1276;108578;-65
2022/06/22 04:41:36;;;;;;;12.30;5.30;;;;;;;12.86;60.72;98561.08;105851;1276;97889;-69
2022/06/22 04:44:37;;;;;;;13.40;6.00;;;;;;;12.89;60.73;98565.35;105872;1276;97899;-67
2022/06/22 04:47:19;;;;;;;13.00;5.30;;;;;;;12.93;60.99;98564.52;105810;1276;110355;-68
2022/06/22 04:49:53;;;;;;;8.40;4.60;;;;;;;12.96;60.80;98570.98;105881;1276;97870;-68
2022/06/22 04:52:36;;;;;;;12.50;4.90;;;;;;;13.01;60.90;98576.25;105849;1276;108162;-69
2022/06/22 04:55:11;;;;;;;8.60;4.50;;;;;;;13.04;60.94;98572.20;105886;1276;97967;-70
2022/06/22 04:57:41;;;;;;;13.80;4.40;;;;;;;13.07;61.08;98570.73;105887;1276;95193;-69
2022/06/22 05:00:20;;;;;;;12.90;4.50;;;;;;;13.10;60.91;98576.80;105861;1276;111451;-69
2022/06/22 05:03:12;;;;;;;13.60;4.60;;;;;;;13.14;60.83;98578.80;105850;1276;97936;-69
2022/06/22 05:05:41;;;;;;;9.00;4.40;;;;;;;13.20;60.85;98582.49;105850;1276;107796;-68
2022/06/22 05:08:28;;;;;;;13.10;5.00;;;;;;;13.25;60.99;98576.16;105848;1276;95343;-69
2022/06/22 05:11:09;;;;;;;12.30;4.00;;;;;;;13.32;61.44;98577.77;105853;1276;95250;-67
2022/06/22 05:13:48;;;;;;;8.60;3.50;;;;;;;13.36;61.31;98585.22;105861;1276;112470;-68
2022/06/22 05:16:27;;;;;;;10.00;4.00;;;;;;;13.40;61.04;98589.25;105879;1276;96399;-70
2022/06/22 05:18:58;;;;;;;13.00;4.40;;;;;;;13.47;61.18;98586.55;105785;1276;107728;-69
2022/06/22 05:21:45;;;;;;;12.70;4.20;;;;;;;13.52;61.15;98585.15;105839;1276;95312;-68
2022/06/22 05:24:23;;;;;;;11.40;5.20;;;;;;;13.57;61.13;98582.02;105877;1276;95444;-67
2022/06/22 05:26:56;;;;;;;9.50;3.80;;;;;;;13.63;61.03;98583.45;105874;1276;111108;-66
2022/06/22 05:29:35;;;;;;;8.60;4.10;;;;;;;13.68;60.97;98586.48;105865;1276;96441;-68
2022/06/22 05:32:12;;;;;;;9.40;3.70;;;;;;;13.75;61.00;98588.37;105908;1274;107811;-69
2022/06/22 05:34:44;;;;;;;6.90;3.60;;;;;;;13.84;61.16;98591.11;105862;1276;98602;-67
2022/06/22 05:37:33;;;;;;;9.60;3.50;;;;;;;13.95;61.10;98588.15;105882;1276;97899;-67
2022/06/22 05:40:04;;;;;;;8.50;3.50;;;;;;;14.11;61.05;98594.26;105867;1276;111710;-68
2022/06/22 05:42:34;;;;;;;9.10;3.60;;;;;;;14.23;60.97;98590.71;105887;1276;97993;-68
2022/06/22 05:45:17;;;;;;;6.60;3.00;;;;;;;14.38;61.09;98594.75;105865;1277;107567;-69
2022/06/22 05:47:47;;;;;;;7.40;3.40;;;;;;;14.51;60.95;98599.05;105867;1277;97993;-69
2022/06/22 05:50:40;;;;;;;8.60;3.40;;;;;;;14.62;61.02;98595.88;105874;1277;97991;-68
2022/06/22 05:53:37;;;;;;;5.30;3.00;;;;;;;14.76;60.95;98593.83;105916;1276;111386;-68
2022/06/22 05:56:21;;;;;;;10.00;3.60;;;;;;;14.87;60.79;98597.20;105898;1277;96274;-68
2022/06/22 05:59:18;;;;;;;5.60;3.10;;;;;;;14.97;60.74;98597.16;105845;1276;108357;-68
2022/06/22 06:02:06;;;;;;;6.80;3.10;;;;;;;15.06;60.67;98597.55;105859;1276;98021;-68
2022/06/22 06:04:50;;;;;;;14.30;3.60;;;;;;;15.16;60.84;98597.58;105929;1277;97943;-67
2022/06/22 06:07:34;;;;;;;5.30;2.70;;;;;;;15.28;60.77;98605.22;105915;1277;111436;-67
2022/06/22 06:10:11;;;;;;;10.60;3.40;;;;;;;15.40;60.75;98608.41;105987;1277;97912;-68
2022/06/22 06:12:45;;;;;;;6.40;3.00;;;;;;;15.53;60.54;98603.77;105895;1277;108254;-68
2022/06/22 06:15:15;;;;;;;6.60;3.00;;;;;;;15.64;60.48;98601.75;105847;1277;97976;-68
2022/06/22 06:17:51;;;;;;;9.80;3.60;;;;;;;15.69;60.48;98601.61;105844;1278;98039;-69
2022/06/22 06:20:35;;;;;;;8.70;3.20;;;;;;;15.73;60.40;98595.91;105853;1277;111340;-67
2022/06/22 06:23:23;;;;;;;9.40;3.50;;;;;;;15.77;60.49;98596.14;105890;1277;95201;-67
2022/06/22 06:29:08;;;;;;;5.40;2.70;;;;;;;15.98;60.48;98602.27;105922;1277;98908;-67
2022/06/22 06:32:00;;;;;;;8.00;3.10;;;;;;;16.16;60.23;98594.00;105999;1277;95256;-68
2022/06/22 06:34:41;;;;;;;4.50;2.40;;;;;;;16.34;59.91;98595.92;105836;1277;112091;-69
2022/06/22 06:37:28;;;;;;;6.30;2.50;;;;;;;16.52;60.06;98591.91;105841;1277;97942;-67
2022/06/22 06:40:01;;;;;;;12.10;2.40;;;;;;;16.73;59.86;98596.11;105818;1277;108221;-67
2022/06/22 06:42:53;;;;;;;8.20;2.80;;;;;;;16.91;59.81;98601.38;105827;1277;95262;-68
2022/06/22 06:45:27;;;;;;;9.60;2.80;;;;;;;17.10;59.62;98595.33;105975;1276;97967;-68
2022/06/22 06:48:01;;;;;;;3.00;2.10;;;;;;;17.30;59.44;98594.76;106070;1276;110565;-68
2022/06/22 06:50:41;;;;;;;3.70;2.10;;;;;;;17.44;59.23;98592.55;106064;1276;97911;-71
2022/06/22 06:53:36;;;;;;;4.80;2.00;;;;;;;17.65;59.32;98580.27;105988;1276;107932;-70
2022/06/22 06:56:40;;;;;;;3.80;1.70;;;;;;;17.99;59.22;98575.06;106016;1276;95247;-69
2022/06/22 06:59:20;;;;;;;4.90;2.20;;;;;;;18.52;59.25;98576.63;105831;1276;97982;-69
2022/06/22 07:01:49;;;;;;;5.20;1.90;;;;;;;19.61;58.55;98570.27;105978;1278;112074;-69
2022/06/22 07:04:36;;;;;;;5.60;2.20;;;;;;;21.31;57.02;98569.80;106043;1277;97970;-69
2022/06/22 07:07:28;;;;;;;2.50;1.90;;;;;;;23.36;56.20;98567.73;105877;1276;107832;-68
2022/06/22 07:10:05;;;;;;;3.50;1.70;;;;;;;25.03;55.54;98576.94;105842;1276;97926;-68
2022/06/22 07:12:55;;;;;;;6.20;2.40;;;;;;;25.60;55.88;98573.11;105884;1276;97863;-67
2022/06/22 07:15:34;;;;;;;5.90;1.90;;;;;;;26.41;55.31;98571.67;105980;1277;111993;-69
2022/06/22 07:18:20;;;;;;;2.90;1.60;;;;;;;27.44;53.83;98575.93;106019;1277;98137;-70
2022/06/22 07:20:57;;;;;;;4.20;1.60;;;;;;;28.10;53.55;98578.75;105877;1276;107829;-68
2022/06/22 07:23:41;;;;;;;4.90;1.70;;;;;;;28.91;52.99;98581.36;105845;1276;97876;-68
2022/06/22 07:26:21;;;;;;;8.20;1.80;;;;;;;29.59;51.99;98585.34;105909;1276;97905;-72
2022/06/22 07:29:03;;;;;;;4.50;1.80;;;;;;;30.28;51.83;98586.80;105987;1277;111174;-70
2022/06/22 07:31:44;;;;;;;2.00;1.80;;;;;;;30.50;52.01;98583.75;106052;1277;98108;-70
2022/06/22 07:34:22;;;;;;;2.00;1.80;;;;;;;31.19;50.72;98577.86;106028;1277;107751;-69
2022/06/22 07:37:12;;;;;;;3.50;1.60;;;;;;;31.69;49.35;98572.01;105986;1277;97787;-71
2022/06/22 07:40:00;;;;;;;2.10;1.30;;;;;;;31.96;49.00;98568.04;105993;1277;98002;-68
2022/06/22 07:42:28;;;;;;;2.70;1.50;;;;;;;31.95;46.31;98578.05;105973;1277;112060;-68
2022/06/22 07:44:58;;;;;;;3.80;1.70;;;;;;;31.75;47.57;98583.52;105953;1277;97997;-68
2022/06/22 07:47:45;;;;;;;2.40;1.80;;;;;;;31.72;46.59;98579.23;105868;1277;110304;-69
2022/06/22 07:50:24;;;;;;;4.10;1.70;;;;;;;31.62;46.92;98575.74;105868;1277;97876;-69
2022/06/22 07:53:16;;;;;;;4.00;2.20;;;;;;;31.58;47.35;98570.10;105885;1277;98001;-73
2022/06/22 07:55:52;;;;;;;3.10;1.50;;;;;;;31.82;46.63;98572.46;105875;1278;110535;-68
2022/06/22 07:58:42;;;;;;;9.10;1.90;;;;;;;31.90;45.78;98571.96;105878;1277;97980;-70
2022/06/22 08:01:15;;;;;;;1.70;1.40;;;;;;;31.68;44.93;98569.44;105860;1277;108464;-70
2022/06/22 08:03:54;;;;;;;2.90;1.60;;;;;;;31.25;45.04;98572.16;105928;1276;96411;-68
2022/06/22 08:06:38;;;;;;;4.40;1.70;;;;;;;31.35;44.18;98564.96;105980;1276;97882;-68
2022/06/22 08:09:17;;;;;;;5.10;2.00;;;;;;;31.50;43.07;98557.08;105884;1276;112077;-68
2022/06/22 08:11:56;;;;;;;4.00;1.60;;;;;;;31.78;43.45;98563.19;106011;1276;97868;-66
2022/06/22 08:14:44;;;;;;;4.70;1.90;;;;;;;32.04;42.17;98567.49;105987;1276;108409;-69
2022/06/22 08:17:34;;;;;;;2.60;1.40;;;;;;;32.03;41.74;98563.14;105895;1277;95309;-69
2022/06/22 08:20:05;;;;;;;6.20;1.60;;;;;;;32.35;41.90;98567.23;105977;1276;99017;-68
2022/06/22 08:22:35;;;;;;;6.50;1.60;;;;;;;32.80;41.80;98568.50;105881;1276;111345;-69
2022/06/22 08:25:06;;;;;;;4.90;1.30;;;;;;;32.46;41.10;98572.77;105885;1276;98620;-69
2022/06/22 08:27:37;;;;;;;1.80;1.40;;;;;;;32.35;40.39;98570.11;105925;1276;107802;-69
2022/06/22 08:30:09;;;;;;;5.80;2.20;;;;;;;32.02;39.51;98562.81;106019;1276;97942;-69
2022/06/22 08:32:47;;;;;;;2.70;1.50;;;;;;;32.00;40.19;98561.48;105984;1276;96985;-68
2022/06/22 08:35:25;;;;;;;3.70;1.50;;;;;;;32.29;39.79;98563.65;105894;1276;112004;-68
2022/06/22 08:38:10;;;;;;;5.70;1.80;;;;;;;32.46;39.34;98555.15;105998;1277;98405;-69
2022/06/22 08:40:45;;;;;;;5.10;1.50;;;;;;;32.75;38.71;98557.84;105972;1277;108015;-69
2022/06/22 08:43:20;;;;;;;2.40;1.70;;;;;;;32.55;38.36;98553.76;106019;1277;98584;-69
2022/06/22 08:46:12;;;;;;;2.10;1.50;;;;;;;32.50;38.25;98548.50;105965;1276;97887;-69
2022/06/22 08:49:14;;;;;;;5.30;1.60;;;;;;;32.75;38.49;98545.30;105946;1278;112004;-68
2022/06/22 08:52:02;;;;;;;5.60;2.00;;;;;;;32.94;36.97;98550.42;105928;1277;98427;-69
2022/06/22 08:54:58;;;;;;;2.30;1.50;;;;;;;32.71;36.51;98561.25;106007;1277;108241;-69
2022/06/22 08:57:51;;;;;;;6.20;1.90;;;;;;;31.94;36.74;98562.38;105939;1277;97888;-69
2022/06/22 09:01:17;;;;;;;3.40;1.70;;;;;;;31.90;36.79;98570.48;105977;1277;97866;-69
2022/06/22 09:04:03;;;;;;;1.70;1.40;;;;;;;31.74;35.78;98561.79;106023;1277;112004;-69
2022/06/22 09:06:32;;;;;;;2.90;1.30;;;;;;;31.58;35.64;98559.33;105988;1277;98399;-69
2022/06/22 09:09:03;;;;;;;5.50;1.60;;;;;;;31.51;35.83;98554.54;106045;1277;108906;-69
2022/06/22 09:11:46;;;;;;;4.90;2.10;;;;;;;31.74;36.02;98553.36;106012;1277;97903;-69
2022/06/22 09:14:19;;;;;;;2.40;1.50;;;;;;;32.01;35.69;98556.64;105998;1277;97881;-68
2022/06/22 09:17:05;;;;;;;2.60;1.40;;;;;;;32.21;35.52;98562.15;106033;1277;110805;-67
2022/06/22 09:19:58;;;;;;;7.70;1.70;;;;;;;32.25;35.54;98565.14;106070;1276;95704;-68
2022/06/22 09:22:58;;;;;;;6.60;1.90;;;;;;;31.80;34.29;98564.45;105945;1277;108453;-67
2022/06/22 09:25:49;;;;;;;2.40;1.40;;;;;;;31.26;33.65;98570.37;106036;1277;97982;-69
2022/06/22 09:28:28;;;;;;;3.20;1.50;;;;;;;30.83;33.74;98556.77;105969;1277;97984;-69
2022/06/22 09:31:18;;;;;;;7.50;1.80;;;;;;;30.76;34.12;98549.79;105902;1277;112746;-68
2022/06/22 09:34:17;;;;;;;3.30;1.70;;;;;;;30.48;33.53;98562.54;106058;1276;98405;-69
2022/06/22 09:37:21;;;;;;;5.60;2.00;;;;;;;30.30;34.14;98551.45;106017;1277;108378;-69
2022/06/22 09:40:21;;;;;;;4.60;1.90;;;;;;;30.23;33.68;98550.41;106023;1277;97906;-69
2022/06/22 09:43:20;;;;;;;4.70;1.60;;;;;;;29.79;33.32;98552.08;106042;1277;97875;-68
2022/06/22 09:46:16;;;;;;;2.40;1.50;;;;;;;28.89;33.04;98546.55;105919;1276;110989;-69
2022/06/22 09:49:07;;;;;;;6.00;2.00;;;;;;;28.40;33.15;98551.24;106032;1276;98463;-67
2022/06/22 09:51:46;;;;;;;5.80;2.00;;;;;;;27.98;33.12;98551.59;105881;1276;108257;-67
2022/06/22 09:57:42;;;;;;;7.60;2.00;;;;;;;27.09;32.97;98543.70;106000;1278;97881;-69
2022/06/22 10:00:19;;;;;;;4.10;1.80;;;;;;;26.49;33.01;98546.30;105986;1279;111121;-69
2022/06/22 10:03:05;;;;;;;3.80;1.80;;;;;;;26.36;32.97;98541.43;105896;1278;95667;-69
2022/06/22 10:06:16;;;;;;;3.50;1.90;;;;;;;26.23;32.92;98539.61;105830;1277;108422;-69
2022/06/22 10:09:04;;;;;;;2.70;2.00;;;;;;;25.89;32.54;98540.23;105838;1278;97962;-69
2022/06/22 10:12:02;;;;;;;4.80;1.70;;;;;;;25.58;33.13;98544.77;105888;1276;97976;-69
2022/06/22 10:15:00;;;;;;;4.30;2.00;;;;;;;25.44;33.15;98541.35;105921;1276;111822;-68
2022/06/22 10:18:10;;;;;;;7.10;2.20;;;;;;;25.14;33.00;98552.48;106010;1276;98101;-70
2022/06/22 10:21:04;;;;;;;4.10;1.90;;;;;;;24.72;32.73;98551.52;106024;1277;107755;-69
2022/06/22 10:24:09;;;;;;;4.40;2.10;;;;;;;24.32;32.84;98553.64;105946;1276;97985;-68
2022/06/22 10:26:53;;;;;;;4.30;1.90;;;;;;;24.01;33.26;98544.05;106032;1277;97914;-68
2022/06/22 10:29:30;;;;;;;4.70;1.70;;;;;;;23.93;33.14;98545.25;106001;1278;112761;-68
2022/06/22 10:32:11;;;;;;;4.60;2.00;;;;;;;23.88;33.19;98547.21;105987;1277;97004;-68
2022/06/22 10:35:03;;;;;;;6.30;2.00;;;;;;;23.69;33.21;98543.06;105939;1278;107587;-67
2022/06/22 10:37:57;;;;;;;4.00;1.70;;;;;;;23.54;33.38;98543.41;106003;1279;98000;-67
2022/06/22 10:47:07;;;;;;;5.60;2.40;;;;;;;23.18;33.77;98538.80;106132;1276;97877;-68
2022/06/22 10:49:48;;;;;;;6.50;1.90;;;;;;;23.20;33.91;98538.27;106065;1276;107614;-69
2022/06/22 10:52:45;;;;;;;6.30;2.10;;;;;;;23.10;33.51;98539.70;106004;1276;97884;-68
2022/06/22 10:55:42;;;;;;;3.90;1.50;;;;;;;22.91;33.90;98532.11;106023;1276;97973;-68
2022/06/22 10:58:27;;;;;;;4.70;1.70;;;;;;;22.92;33.97;98528.41;105990;1276;111846;-69
2022/06/22 11:01:10;;;;;;;5.90;2.10;;;;;;;23.00;34.16;98531.52;106008;1276;98684;-68
2022/06/22 11:04:06;;;;;;;5.80;2.20;;;;;;;23.02;33.99;98535.73;105962;1276;107336;-68
2022/06/22 11:07:11;;;;;;;4.90;2.30;;;;;;;22.88;33.90;98534.70;106031;1276;97976;-69
2022/06/22 11:10:10;;;;;;;4.30;1.80;;;;;;;22.74;34.06;98537.34;106024;1276;97979;-68
2022/06/22 11:13:14;;;;;;;2.90;1.90;;;;;;;22.71;34.14;98536.73;105980;1276;111746;-69
2022/06/22 11:16:08;;;;;;;3.60;2.20;;;;;;;22.64;34.12;98530.33;105932;1279;95208;-68
2022/06/22 11:18:50;;;;;;;8.40;1.80;;;;;;;22.61;34.66;98523.33;105903;1278;110526;-68
2022/06/22 11:21:49;;;;;;;5.20;2.00;;;;;;;22.77;34.92;98525.75;105948;1276;97893;-68
2022/06/22 11:24:40;;;;;;;3.50;1.80;;;;;;;22.98;34.47;98533.15;105909;1276;97990;-67
2022/06/22 11:30:48;;;;;;;4.20;2.00;;;;;;;22.92;34.48;98527.48;105943;1276;97999;-67
2022/06/22 11:33:38;;;;;;;7.10;2.10;;;;;;;23.03;34.57;98531.34;105938;1276;108428;-68
2022/06/22 11:36:26;;;;;;;2.70;1.70;;;;;;;23.09;34.84;98525.60;105916;1276;97919;-68
2022/06/22 11:39:30;;;;;;;4.40;2.10;;;;;;;23.18;34.77;98524.61;105837;1277;95248;-67
2022/06/22 11:42:23;;;;;;;6.30;2.40;;;;;;;23.27;34.69;98523.27;105992;1276;112107;-68
2022/06/22 11:48:19;;;;;;;4.50;1.80;;;;;;;23.23;35.15;98521.69;105974;1276;108521;-69
2022/06/22 11:51:09;;;;;;;3.70;2.00;;;;;;;23.33;35.15;98520.11;105981;1276;98417;-69
2022/06/22 11:53:56;;;;;;;4.80;2.20;;;;;;;23.49;34.96;98517.02;106004;1276;97846;-68
2022/06/22 11:56:53;;;;;;;3.00;1.60;;;;;;;23.62;35.15;98514.26;105924;1276;111979;-69
2022/06/22 11:59:55;;;;;;;3.50;2.00;;;;;;;23.74;35.25;98521.63;105997;1276;96981;-67
2022/06/22 12:02:42;;;;;;;6.10;2.10;;;;;;;23.85;35.23;98524.84;105859;1278;107410;-70
2022/06/22 12:05:32;;;;;;;10.10;2.40;;;;;;;23.88;35.04;98518.80;105893;1276;97882;-70
2022/06/22 12:08:09;;;;;;;7.50;2.00;;;;;;;23.82;34.68;98526.23;105929;1276;97850;-68
2022/06/22 12:11:11;;;;;;;3.40;2.10;;;;;;;23.63;34.89;98523.86;105943;1277;111131;-68
2022/06/22 12:17:14;;;;;;;5.40;2.20;;;;;;;23.35;35.13;98526.88;105931;1276;108977;-69
2022/06/22 12:20:25;;;;;;;2.90;2.20;;;;;;;23.39;35.14;98521.33;105907;1276;97869;-69
2022/06/22 12:23:08;;;;;;;5.50;2.10;;;;;;;23.46;35.28;98514.42;105975;1276;95830;-69
2022/06/22 12:26:19;;;;;;;3.50;1.60;;;;;;;23.46;35.12;98513.30;105999;1276;111486;-70
2022/06/22 12:29:00;;;;;;;5.80;2.20;;;;;;;23.49;35.20;98512.67;105981;1276;98468;-69
2022/06/22 12:31:39;;;;;;;6.50;2.40;;;;;;;23.60;35.26;98512.46;106024;1276;108495;-66
2022/06/22 12:34:38;;;;;;;5.90;2.10;;;;;;;23.70;35.18;98510.61;105977;1276;95299;-68
2022/06/22 12:37:21;;;;;;;6.30;2.20;;;;;;;23.77;35.35;98509.14;105983;1276;96528;-69
2022/06/22 12:39:55;;;;;;;;;;;;;;;23.83;35.37;98508.80;105873;1276;110922;-69
2022/06/22 12:42:41;;;;;;;6.50;2.10;;;;;;;23.83;35.53;98509.10;105892;1276;97977;-69
2022/06/22 12:45:26;;;;;;;7.30;2.10;;;;;;;23.74;35.10;98515.33;105842;1276;107655;-69
2022/06/22 12:48:23;;;;;;;6.00;2.30;;;;;;;23.56;35.11;98517.52;105851;1276;97967;-68
2022/06/22 12:51:28;;;;;;;6.90;2.70;;;;;;;23.50;35.04;98514.22;105877;1276;96567;-70
2022/06/22 12:54:19;;;;;;;5.40;2.20;;;;;;;23.49;35.38;98515.59;105846;1276;112412;-69
2022/06/22 12:56:59;;;;;;;7.60;2.30;;;;;;;23.57;35.38;98516.98;105846;1276;96349;-69
2022/06/22 12:59:37;;;;;;;3.00;1.90;;;;;;;23.68;35.27;98515.16;105844;1276;108494;-68
2022/06/22 13:02:16;;;;;;;4.50;2.30;;;;;;;23.79;35.50;98518.79;105868;1276;95343;-69